Time;durP1;ratioP1;P1;durP2;ratioP2;P2;SDS_P1;SDS_P2;PMS_P1;PMS_P2;Temp;Humidity;BMP_temperature;BMP_pressure;BME280_temperature;BME280_humidity;BME280_pressure;Samples;Min_cycle;Max_cycle;Signal;HPM_P1;HPM_P2
2022/12/10 00:02:09;;;;;;;27.23;19.65;;;;;;;-1.55;100.00;100822.34;4995515;28;20267;-47
2022/12/10 00:04:34;;;;;;;29.27;19.13;;;;;;;-1.49;100.00;100822.44;5000031;28;20215;-46
2022/12/10 00:06:59;;;;;;;29.13;19.60;;;;;;;-1.51;100.00;100817.19;4999127;28;20244;-43
2022/12/10 00:09:25;;;;;;;26.98;18.98;;;;;;;-1.43;100.00;100821.63;4995892;28;20575;-44
2022/12/10 00:11:51;;;;;;;28.90;18.67;;;;;;;-1.37;100.00;100816.44;5001069;28;20185;-45
2022/12/10 00:14:16;;;;;;;28.27;19.40;;;;;;;-1.31;100.00;100830.53;5000785;28;20211;-47
2022/12/10 00:16:42;;;;;;;32.88;21.25;;;;;;;-1.36;100.00;100826.06;5001349;28;20330;-47
2022/12/10 00:19:08;;;;;;;32.35;22.63;;;;;;;-1.43;100.00;100830.38;5009030;28;20444;-46
2022/12/10 00:21:35;;;;;;;34.70;23.92;;;;;;;-1.54;100.00;100818.88;5002989;28;20216;-44
2022/12/10 00:24:02;;;;;;;36.08;26.23;;;;;;;-1.47;100.00;100828.59;5000789;28;20196;-47
2022/12/10 00:26:36;;;;;;;35.85;24.98;;;;;;;-1.45;100.00;100832.13;4998547;28;20224;-47
2022/12/10 00:29:03;;;;;;;34.88;24.42;;;;;;;-1.49;100.00;100819.81;5003338;28;20702;-45
2022/12/10 00:31:31;;;;;;;41.47;25.67;;;;;;;-1.46;100.00;100817.22;5001221;28;20285;-47
2022/12/10 00:34:00;;;;;;;38.65;25.00;;;;;;;-1.52;100.00;100812.78;5003382;28;20181;-47
2022/12/10 00:36:31;;;;;;;37.08;25.20;;;;;;;-1.60;100.00;100829.31;4998972;28;20185;-46
2022/12/10 00:38:58;;;;;;;31.70;22.73;;;;;;;-1.63;100.00;100818.78;5001061;28;20246;-46
2022/12/10 00:41:27;;;;;;;35.45;23.85;;;;;;;-1.58;100.00;100827.59;4997793;28;20645;-46
2022/12/10 00:43:53;;;;;;;38.20;24.45;;;;;;;-1.62;100.00;100823.16;4995009;28;20235;-46
2022/12/10 00:46:33;;;;;;;34.95;24.73;;;;;;;-1.61;100.00;100822.31;4990503;28;20664;-46
2022/12/10 00:48:59;;;;;;;37.95;25.50;;;;;;;-1.61;100.00;100812.69;4996106;28;20714;-46
2022/12/10 00:51:27;;;;;;;38.40;25.70;;;;;;;-1.67;100.00;100816.09;5005934;28;20197;-46
2022/12/10 00:53:54;;;;;;;36.00;24.40;;;;;;;-1.73;100.00;100812.53;4997756;28;20193;-46
2022/12/10 00:56:23;;;;;;;39.28;25.58;;;;;;;-1.70;100.00;100825.72;5001329;28;20695;-45
2022/12/10 00:58:50;;;;;;;42.50;26.38;;;;;;;-1.68;100.00;100826.63;5000135;28;20185;-45
2022/12/10 01:01:42;;;;;;;39.03;26.77;;;;;;;-1.66;100.00;100820.50;4999074;28;20830;-45
2022/12/10 01:04:13;;;;;;;43.05;27.83;;;;;;;-1.77;100.00;100824.75;4999610;28;20577;-44
2022/12/10 01:06:44;;;;;;;44.70;28.77;;;;;;;-1.78;100.00;100830.88;4983467;28;20184;-46
2022/12/10 01:09:11;;;;;;;46.20;29.55;;;;;;;-1.73;100.00;100829.19;4998967;28;20189;-46
2022/12/10 01:11:40;;;;;;;45.38;27.50;;;;;;;-1.74;100.00;100829.16;4998540;28;20189;-46
2022/12/10 01:14:13;;;;;;;41.58;27.98;;;;;;;-1.70;100.00;100829.22;4998006;28;20184;-46
2022/12/10 01:16:39;;;;;;;44.65;28.45;;;;;;;-1.82;100.00;100836.06;4999728;28;20235;-46
2022/12/10 01:19:05;;;;;;;43.58;26.90;;;;;;;-1.68;100.00;100831.88;5000671;28;20271;-46
2022/12/10 01:21:34;;;;;;;44.60;27.83;;;;;;;-1.70;100.00;100838.84;4996144;28;20273;-45
2022/12/10 01:24:00;;;;;;;47.30;28.40;;;;;;;-1.79;100.00;100851.84;4996354;28;20318;-47
2022/12/10 01:26:28;;;;;;;44.03;28.00;;;;;;;-1.82;100.00;100849.19;5006474;28;20271;-47
2022/12/10 01:28:55;;;;;;;45.45;27.15;;;;;;;-1.85;100.00;100860.53;5004263;28;20235;-45
2022/12/10 01:31:27;;;;;;;44.38;27.30;;;;;;;-1.76;100.00;100854.53;5000635;28;20680;-48
2022/12/10 01:33:52;;;;;;;42.80;26.98;;;;;;;-1.66;100.00;100867.78;4979546;28;20173;-45
2022/12/10 01:36:21;;;;;;;48.22;28.02;;;;;;;-1.76;100.00;100858.03;4996931;28;20325;-45
2022/12/10 01:38:47;;;;;;;47.53;28.67;;;;;;;-1.77;100.00;100864.16;4998894;28;20549;-47
2022/12/10 01:41:26;;;;;;;49.42;29.55;;;;;;;-1.82;100.00;100871.06;4995045;28;20233;-47
2022/12/10 01:44:15;;;;;;;49.83;28.48;;;;;;;-1.79;100.00;100876.38;4999547;28;20655;-45
2022/12/10 01:46:43;;;;;;;49.25;28.00;;;;;;;-1.82;100.00;100865.81;4988830;28;20201;-47
2022/12/10 01:49:12;;;;;;;51.72;29.10;;;;;;;-1.89;100.00;100875.38;4997540;28;20264;-46
2022/12/10 01:51:39;;;;;;;51.20;28.35;;;;;;;-1.87;100.00;100878.91;4995326;28;20192;-46
2022/12/10 01:54:10;;;;;;;49.03;27.98;;;;;;;-1.83;100.00;100879.84;4999626;28;20296;-47
2022/12/10 01:56:40;;;;;;;52.53;28.25;;;;;;;-1.81;100.00;100875.47;5015547;28;20301;-46
2022/12/10 01:59:06;;;;;;;40.67;24.42;;;;;;;-1.75;100.00;100870.31;4986057;28;20181;-46
2022/12/10 02:01:40;;;;;;;44.88;26.00;;;;;;;-1.85;100.00;100878.94;4995290;28;20212;-45
2022/12/10 02:04:29;;;;;;;47.50;27.17;;;;;;;-1.90;100.00;100881.50;4997772;28;20279;-46
2022/12/10 02:07:01;;;;;;;49.50;27.35;;;;;;;-1.92;100.00;100883.22;4996623;28;20192;-46
2022/12/10 02:09:54;;;;;;;53.45;28.42;;;;;;;-1.89;100.00;100892.88;5006424;28;20207;-46
2022/12/10 02:12:34;;;;;;;49.88;28.83;;;;;;;-1.92;100.00;100898.09;5013011;28;20660;-45
2022/12/10 02:15:23;;;;;;;53.97;29.35;;;;;;;-1.92;100.00;100896.34;4977327;28;20189;-46
2022/12/10 02:18:07;;;;;;;48.08;28.25;;;;;;;-1.95;100.00;100896.28;5000324;28;20207;-45
2022/12/10 02:20:39;;;;;;;52.25;27.95;;;;;;;-2.01;100.00;100897.94;5012703;28;20224;-47
2022/12/10 02:23:22;;;;;;;46.42;27.08;;;;;;;-1.93;100.00;100894.56;5005297;28;20181;-47
2022/12/10 02:25:59;;;;;;;50.70;27.77;;;;;;;-1.84;100.00;100885.94;5002296;28;20553;-47
2022/12/10 02:28:39;;;;;;;47.92;26.17;;;;;;;-1.99;100.00;100899.75;5004393;28;20200;-46
2022/12/10 02:31:10;;;;;;;49.25;26.98;;;;;;;-1.96;100.00;100899.78;4998917;28;20209;-45
2022/12/10 02:33:40;;;;;;;49.58;27.70;;;;;;;-2.09;100.00;100898.72;5008387;28;20177;-46
2022/12/10 02:36:09;;;;;;;47.25;25.65;;;;;;;-1.98;100.00;100903.25;5009708;28;20243;-46
2022/12/10 02:38:39;;;;;;;41.20;25.08;;;;;;;-1.97;100.00;100895.41;4999757;28;20181;-41
2022/12/10 02:41:07;;;;;;;46.38;26.88;;;;;;;-2.04;100.00;100890.03;5001743;28;20213;-47
2022/12/10 02:43:34;;;;;;;46.65;27.38;;;;;;;-1.98;100.00;100900.63;5011079;28;20185;-43
2022/12/10 02:46:03;;;;;;;47.22;25.38;;;;;;;-1.98;100.00;100901.50;5009502;28;20216;-42
2022/12/10 02:48:31;;;;;;;45.78;25.70;;;;;;;-2.02;100.00;100909.31;5008539;28;20169;-46
2022/12/10 02:50:57;;;;;;;43.58;25.13;;;;;;;-2.11;100.00;100900.44;5011231;28;20197;-48
2022/12/10 02:53:22;;;;;;;41.55;23.88;;;;;;;-2.07;100.00;100902.25;5005771;28;20236;-44
2022/12/10 02:55:51;;;;;;;44.42;24.60;;;;;;;-2.11;100.00;100891.69;5012354;28;20192;-43
2022/12/10 02:58:40;;;;;;;45.95;25.80;;;;;;;-2.07;100.00;100897.00;5009057;28;20554;-47
2022/12/10 03:01:42;;;;;;;41.22;23.77;;;;;;;-2.14;100.00;100889.91;4996722;28;20210;-43
2022/12/10 03:04:16;;;;;;;44.03;22.95;;;;;;;-2.15;100.00;100900.38;4999876;28;20204;-46
2022/12/10 03:06:51;;;;;;;42.70;23.75;;;;;;;-2.14;100.00;100905.66;5006252;28;20244;-43
2022/12/10 03:09:24;;;;;;;42.78;23.00;;;;;;;-2.05;100.00;100909.28;5010184;28;20181;-43
2022/12/10 03:11:58;;;;;;;43.97;23.42;;;;;;;-2.15;100.00;100908.25;5013587;28;20184;-43
2022/12/10 03:14:29;;;;;;;38.17;22.30;;;;;;;-2.19;100.00;100912.56;5002594;28;20184;-46
2022/12/10 03:16:58;;;;;;;41.60;22.42;;;;;;;-2.14;100.00;100904.78;5008089;28;20188;-43
2022/12/10 03:19:28;;;;;;;42.38;24.40;;;;;;;-2.26;100.00;100905.47;4999414;28;20232;-43
2022/12/10 03:21:56;;;;;;;42.65;22.92;;;;;;;-2.19;100.00;100902.06;5007567;28;20689;-43
2022/12/10 03:24:26;;;;;;;41.25;23.02;;;;;;;-2.18;100.00;100905.59;5011417;28;20604;-42
2022/12/10 03:26:52;;;;;;;40.45;22.73;;;;;;;-2.14;100.00;100907.41;5004008;28;20211;-42
2022/12/10 03:29:23;;;;;;;44.97;24.20;;;;;;;-2.19;100.00;100907.31;5005098;28;20553;-44
2022/12/10 03:31:50;;;;;;;45.65;23.83;;;;;;;-2.20;100.00;100913.44;5012931;28;20173;-49
2022/12/10 03:34:16;;;;;;;46.85;25.05;;;;;;;-2.13;100.00;100911.78;5005460;28;20652;-42
2022/12/10 03:36:43;;;;;;;41.67;24.17;;;;;;;-2.18;100.00;100924.84;5008439;28;20199;-43
2022/12/10 03:39:09;;;;;;;44.30;24.55;;;;;;;-2.22;100.00;100922.16;5009206;28;20711;-43
2022/12/10 03:41:34;;;;;;;39.95;23.13;;;;;;;-2.16;100.00;100923.13;4998012;28;20205;-42
2022/12/10 03:44:00;;;;;;;39.30;22.83;;;;;;;-2.18;100.00;100924.84;5000372;28;20181;-43
2022/12/10 03:46:28;;;;;;;40.05;22.10;;;;;;;-2.16;100.00;100922.25;5004518;28;20593;-44
2022/12/10 03:48:54;;;;;;;42.92;23.58;;;;;;;-2.11;100.00;100931.06;4995004;28;20180;-47
2022/12/10 03:51:20;;;;;;;39.35;22.38;;;;;;;-2.13;100.00;100925.78;4999055;28;20212;-44
2022/12/10 03:53:48;;;;;;;42.83;22.67;;;;;;;-2.16;100.00;100933.63;4996824;28;20185;-46
2022/12/10 03:56:14;;;;;;;42.28;23.70;;;;;;;-2.12;100.00;100929.28;5011166;28;20181;-47
2022/12/10 03:58:39;;;;;;;40.30;22.23;;;;;;;-2.07;100.00;100933.75;5012593;28;20232;-46
2022/12/10 04:01:05;;;;;;;38.17;21.73;;;;;;;-2.04;100.00;100925.03;5000335;28;20293;-43
2022/12/10 04:03:35;;;;;;;41.15;22.98;;;;;;;-2.08;100.00;100926.75;5001602;28;20653;-43
2022/12/10 04:06:03;;;;;;;40.47;23.23;;;;;;;-2.07;100.00;100931.13;4992421;28;20194;-45
2022/12/10 04:08:28;;;;;;;40.88;22.48;;;;;;;-2.00;100.00;100928.59;4996819;28;20213;-47
2022/12/10 04:10:54;;;;;;;42.58;22.63;;;;;;;-2.06;100.00;100924.13;5001263;28;20830;-45
2022/12/10 04:18:47;;;;;;;35.10;21.65;;;;;;;-2.02;100.00;100931.19;5006247;28;20184;-43
2022/12/10 04:26:53;;;;;;;38.05;22.10;;;;;;;-2.04;100.00;100916.28;5009493;28;20271;-47
2022/12/10 04:29:27;;;;;;;39.92;22.73;;;;;;;-2.02;100.00;100914.56;4995966;28;20251;-47
2022/12/10 04:31:53;;;;;;;36.53;22.00;;;;;;;-1.95;100.00;100916.41;5000251;28;20194;-43
2022/12/10 04:34:19;;;;;;;36.08;22.65;;;;;;;-1.92;100.00;100917.34;4997781;28;20186;-43
2022/12/10 04:36:45;;;;;;;36.53;22.48;;;;;;;-1.95;100.00;100906.78;5002538;28;20185;-47
2022/12/10 04:39:11;;;;;;;37.83;22.85;;;;;;;-1.96;100.00;100910.28;5005299;28;20247;-43
2022/12/10 04:41:43;;;;;;;35.67;20.98;;;;;;;-1.96;100.00;100909.41;5001674;28;20200;-42
2022/12/10 04:44:09;;;;;;;35.55;21.83;;;;;;;-1.87;100.00;100901.66;4997181;28;20589;-42
2022/12/10 04:46:35;;;;;;;35.33;21.95;;;;;;;-1.83;100.00;100898.22;4996220;28;20298;-41
2022/12/10 04:49:00;;;;;;;36.38;22.05;;;;;;;-1.84;100.00;100908.69;5007130;28;20246;-42
2022/12/10 04:51:26;;;;;;;33.50;21.85;;;;;;;-1.87;100.00;100901.66;4999496;28;20205;-40
2022/12/10 04:53:51;;;;;;;32.97;21.13;;;;;;;-2.04;100.00;100914.53;4998367;28;20176;-42
2022/12/10 04:56:17;;;;;;;30.33;20.35;;;;;;;-2.06;100.00;100903.13;4995202;28;20656;-42
2022/12/10 04:58:43;;;;;;;29.73;19.65;;;;;;;-1.99;100.00;100912.88;4996819;28;20181;-42
2022/12/10 05:01:11;;;;;;;30.55;20.02;;;;;;;-1.98;100.00;100908.50;5000517;28;20311;-42
2022/12/10 05:03:37;;;;;;;31.65;20.20;;;;;;;-1.93;100.00;100909.44;5000807;28;20184;-41
2022/12/10 05:06:04;;;;;;;31.45;21.77;;;;;;;-1.96;100.00;100912.91;5008004;28;20220;-42
2022/12/10 05:08:30;;;;;;;38.80;22.33;;;;;;;-1.87;100.00;100907.78;5000900;28;20185;-41
2022/12/10 05:11:01;;;;;;;35.20;22.48;;;;;;;-1.83;100.00;100916.59;4999057;28;20274;-43
2022/12/10 05:13:27;;;;;;;33.00;21.33;;;;;;;-1.87;100.00;100909.53;4999157;28;20193;-42
2022/12/10 05:15:52;;;;;;;30.58;20.05;;;;;;;-1.94;100.00;100928.69;4999447;28;20237;-42
2022/12/10 05:18:18;;;;;;;33.05;21.95;;;;;;;-2.01;100.00;100924.19;5001500;28;20734;-42
2022/12/10 05:20:44;;;;;;;35.17;21.95;;;;;;;-1.99;100.00;100920.75;4999042;28;20245;-42
2022/12/10 05:23:27;;;;;;;35.88;21.75;;;;;;;-1.89;100.00;100917.38;5001715;28;20195;-42
2022/12/10 05:26:09;;;;;;;33.92;20.50;;;;;;;-1.79;100.00;100921.03;4999284;28;20182;-42
2022/12/10 05:28:37;;;;;;;35.33;21.20;;;;;;;-1.84;100.00;100927.06;4997376;28;20664;-43
2022/12/10 05:31:04;;;;;;;34.17;20.65;;;;;;;-1.90;100.00;100925.25;4998954;28;20216;-42
2022/12/10 05:33:30;;;;;;;36.75;21.77;;;;;;;-1.98;100.00;100917.25;4995253;28;20177;-41
2022/12/10 05:36:01;;;;;;;37.95;23.70;;;;;;;-1.92;100.00;100930.47;4998057;28;20181;-42
2022/12/10 05:38:29;;;;;;;32.00;21.08;;;;;;;-1.95;100.00;100934.78;5002608;28;20276;-42
2022/12/10 05:40:54;;;;;;;34.03;21.60;;;;;;;-2.03;100.00;100921.56;4998290;28;20224;-40
2022/12/10 05:43:20;;;;;;;35.72;21.90;;;;;;;-2.00;100.00;100928.59;4999133;28;20204;-41
2022/12/10 05:45:46;;;;;;;37.45;20.90;;;;;;;-2.06;100.00;100932.00;4996279;28;20640;-43
2022/12/10 05:48:14;;;;;;;33.60;20.00;;;;;;;-1.96;100.00;100935.66;4998648;28;20185;-42
2022/12/10 05:50:40;;;;;;;33.65;20.33;;;;;;;-1.95;100.00;100932.16;5004432;28;20205;-47
2022/12/10 05:53:06;;;;;;;34.67;22.02;;;;;;;-1.98;100.00;100940.00;5000849;28;20210;-48
2022/12/10 05:55:32;;;;;;;32.95;20.95;;;;;;;-1.99;100.00;100930.34;4998605;28;20646;-50
2022/12/10 05:57:59;;;;;;;34.97;21.45;;;;;;;-2.04;100.00;100935.53;4997258;28;20176;-49
2022/12/10 06:00:25;;;;;;;31.42;20.85;;;;;;;-2.02;100.00;100935.56;4988627;28;20205;-48
2022/12/10 06:02:51;;;;;;;33.63;20.25;;;;;;;-1.91;100.00;100933.97;4993624;28;20185;-47
2022/12/10 06:05:17;;;;;;;35.78;21.52;;;;;;;-1.89;100.00;100940.13;4998576;28;20185;-48
2022/12/10 06:07:43;;;;;;;33.40;20.23;;;;;;;-1.98;100.00;100943.50;4996469;28;20637;-49
2022/12/10 06:10:09;;;;;;;33.97;20.67;;;;;;;-1.97;100.00;100939.13;5004695;28;20220;-47
2022/12/10 06:12:34;;;;;;;29.58;19.17;;;;;;;-2.03;100.00;100931.16;4998720;28;20213;-48
2022/12/10 06:15:00;;;;;;;31.75;19.73;;;;;;;-2.04;100.00;100932.03;4995158;28;20185;-47
2022/12/10 06:17:25;;;;;;;33.10;21.63;;;;;;;-1.99;100.00;100933.88;5005682;28;20189;-50
2022/12/10 06:19:51;;;;;;;33.20;20.48;;;;;;;-1.98;100.00;100940.00;4997695;28;20204;-48
2022/12/10 06:22:16;;;;;;;34.55;21.83;;;;;;;-2.05;100.00;100940.78;5000262;28;20181;-47
2022/12/10 06:24:42;;;;;;;31.25;19.90;;;;;;;-2.02;100.00;100951.31;5006342;28;20261;-48
2022/12/10 06:27:07;;;;;;;32.83;21.75;;;;;;;-2.08;100.00;100955.63;4995881;28;20197;-47
2022/12/10 06:29:33;;;;;;;31.88;20.70;;;;;;;-2.04;100.00;100940.78;4996540;28;20242;-47
2022/12/10 06:31:58;;;;;;;35.28;20.90;;;;;;;-2.08;100.00;100947.75;4997683;28;20194;-49
2022/12/10 06:34:24;;;;;;;33.55;20.52;;;;;;;-2.08;100.00;100944.22;4998952;28;20254;-48
2022/12/10 06:36:49;;;;;;;34.92;19.55;;;;;;;-2.09;100.00;100948.59;4996547;28;20192;-47
2022/12/10 06:39:15;;;;;;;29.40;19.17;;;;;;;-2.13;100.00;100940.66;4997711;28;20181;-47
2022/12/10 06:41:43;;;;;;;29.00;18.25;;;;;;;-2.13;100.00;100952.03;4994932;28;20244;-48
2022/12/10 06:44:10;;;;;;;28.83;18.27;;;;;;;-2.11;100.00;100957.31;4997298;28;20201;-48
2022/12/10 06:46:36;;;;;;;29.98;19.02;;;;;;;-2.11;100.00;100954.69;5001260;28;20224;-48
2022/12/10 06:49:03;;;;;;;28.20;18.83;;;;;;;-2.05;100.00;100956.53;4993759;28;20644;-48
2022/12/10 06:51:29;;;;;;;29.85;19.70;;;;;;;-2.13;100.00;100945.91;4997125;28;20201;-48
2022/12/10 06:53:54;;;;;;;29.35;18.90;;;;;;;-2.17;100.00;100955.47;4996572;28;20189;-48
2022/12/10 06:56:21;;;;;;;25.85;17.52;;;;;;;-2.09;100.00;100948.59;5004780;28;20621;-48
2022/12/10 06:58:47;;;;;;;27.80;17.75;;;;;;;-2.12;100.00;100950.28;4998421;28;20591;-48
2022/12/10 07:01:14;;;;;;;30.50;19.15;;;;;;;-2.14;100.00;100958.16;4998976;28;20617;-48
2022/12/10 07:03:40;;;;;;;26.50;17.80;;;;;;;-2.21;100.00;100951.03;5000105;28;20180;-48
2022/12/10 07:06:07;;;;;;;25.17;16.98;;;;;;;-2.19;100.00;100967.69;4996353;28;20204;-48
2022/12/10 07:08:34;;;;;;;25.58;16.13;;;;;;;-2.11;100.00;100963.44;4994104;28;20184;-47
2022/12/10 07:11:04;;;;;;;25.65;17.08;;;;;;;-2.04;100.00;100971.41;4998546;28;20202;-50
2022/12/10 07:13:29;;;;;;;24.67;16.77;;;;;;;-2.02;100.00;100978.44;5000904;28;20570;-48
2022/12/10 07:15:55;;;;;;;29.10;17.58;;;;;;;-1.98;100.00;100980.28;5004808;28;20216;-48
2022/12/10 07:18:20;;;;;;;25.92;17.88;;;;;;;-2.04;100.00;100974.03;5002002;28;20185;-48
2022/12/10 07:20:46;;;;;;;23.58;16.23;;;;;;;-2.05;100.00;100977.53;4998481;28;20643;-47
2022/12/10 07:23:12;;;;;;;27.13;16.88;;;;;;;-2.06;100.00;100987.13;5000014;28;20181;-47
2022/12/10 07:25:37;;;;;;;26.05;16.25;;;;;;;-2.10;100.00;100987.94;5000038;28;20266;-49
2022/12/10 07:28:03;;;;;;;26.20;16.63;;;;;;;-2.13;100.00;100986.16;4999663;28;20185;-50
2022/12/10 07:30:29;;;;;;;21.95;14.75;;;;;;;-2.01;100.00;100976.69;5005821;28;20579;-48
2022/12/10 07:32:54;;;;;;;22.00;14.82;;;;;;;-2.01;100.00;100981.94;5002200;28;20640;-49
2022/12/10 07:35:19;;;;;;;19.42;14.00;;;;;;;-1.98;100.00;100988.16;5008610;28;20683;-48
2022/12/10 07:37:45;;;;;;;23.73;14.90;;;;;;;-2.01;100.00;100990.75;5002755;28;20199;-48
2022/12/10 07:40:11;;;;;;;22.20;14.23;;;;;;;-1.94;100.00;100991.72;4999209;28;20220;-48
2022/12/10 07:42:36;;;;;;;20.38;15.00;;;;;;;-1.99;100.00;100991.66;4998378;28;20188;-48
2022/12/10 07:45:03;;;;;;;21.80;14.98;;;;;;;-1.96;100.00;100988.19;4999140;28;20250;-47
2022/12/10 07:47:28;;;;;;;24.42;14.68;;;;;;;-1.96;100.00;100988.19;4998966;28;20195;-48
2022/12/10 07:49:54;;;;;;;22.48;15.60;;;;;;;-1.92;100.00;100992.63;4997696;28;20204;-47
2022/12/10 07:52:20;;;;;;;20.27;14.82;;;;;;;-2.01;100.00;101002.94;5000345;28;20181;-48
2022/12/10 07:54:45;;;;;;;21.23;14.27;;;;;;;-2.15;100.00;100998.38;4998659;28;20189;-49
2022/12/10 07:57:11;;;;;;;20.92;13.98;;;;;;;-2.13;100.00;100999.28;4999469;28;20204;-48
2022/12/10 07:59:36;;;;;;;20.75;14.57;;;;;;;-2.20;100.00;101005.28;4999876;28;20294;-48
2022/12/10 08:02:02;;;;;;;19.73;13.07;;;;;;;-2.05;100.00;101001.16;4997110;28;20196;-49
2022/12/10 08:04:29;;;;;;;19.40;13.52;;;;;;;-2.11;100.00;101005.44;4998036;28;20562;-47
2022/12/10 08:06:55;;;;;;;20.67;13.30;;;;;;;-2.12;100.00;101015.91;4997993;28;20192;-50
2022/12/10 08:09:23;;;;;;;20.13;13.77;;;;;;;-2.23;100.00;101009.59;5005937;28;20193;-48
2022/12/10 08:11:48;;;;;;;18.73;13.18;;;;;;;-2.21;100.00;101016.63;5005688;28;20181;-48
2022/12/10 08:14:14;;;;;;;17.45;13.45;;;;;;;-2.11;100.00;101013.31;4999312;28;20185;-49
2022/12/10 08:16:39;;;;;;;18.55;13.18;;;;;;;-2.09;100.00;101022.09;5000654;28;20260;-47
2022/12/10 08:19:05;;;;;;;16.23;12.50;;;;;;;-2.17;100.00;101020.22;5000523;28;20187;-48
2022/12/10 08:21:32;;;;;;;17.92;13.55;;;;;;;-2.12;100.00;101029.03;5000376;28;20308;-48
2022/12/10 08:23:58;;;;;;;17.70;11.98;;;;;;;-2.19;100.00;101024.53;5003974;28;20190;-49
2022/12/10 08:26:27;;;;;;;16.50;12.15;;;;;;;-2.24;100.00;101032.34;4998371;28;20819;-48
2022/12/10 08:28:54;;;;;;;15.75;11.43;;;;;;;-2.17;100.00;101025.47;4995680;28;20251;-48
2022/12/10 08:31:21;;;;;;;17.20;12.18;;;;;;;-2.13;100.00;101038.66;4999076;28;20275;-50
2022/12/10 08:33:47;;;;;;;17.80;11.23;;;;;;;-2.08;100.00;101037.00;4997128;28;20177;-47
2022/12/10 08:36:15;;;;;;;17.30;13.05;;;;;;;-1.60;100.00;101034.22;4996643;28;20187;-51
2022/12/10 08:38:41;;;;;;;17.85;13.43;;;;;;;-1.97;100.00;101033.66;5000448;28;20181;-47
2022/12/10 08:41:16;;;;;;;19.08;13.30;;;;;;;-1.96;100.00;101041.56;5001045;28;20584;-48
2022/12/10 08:43:41;;;;;;;18.95;13.13;;;;;;;-1.95;100.00;101045.06;4987589;28;20195;-51
2022/12/10 08:46:07;;;;;;;18.58;13.05;;;;;;;-2.08;100.00;101047.50;4997128;28;20185;-48
2022/12/10 08:48:34;;;;;;;16.00;12.52;;;;;;;-2.10;100.00;101043.97;5001960;28;20180;-48
2022/12/10 08:51:00;;;;;;;18.45;13.30;;;;;;;-2.28;100.00;101047.13;4997944;28;20687;-49
2022/12/10 08:53:25;;;;;;;17.08;12.52;;;;;;;-2.23;100.00;101051.59;5000116;28;20240;-49
2022/12/10 08:55:52;;;;;;;15.73;11.88;;;;;;;-2.14;100.00;101042.16;5006760;28;20602;-43
2022/12/10 08:58:17;;;;;;;18.27;13.80;;;;;;;-2.14;100.00;101047.41;4997676;28;20250;-42
2022/12/10 09:00:43;;;;;;;17.95;13.35;;;;;;;-2.11;100.00;101044.81;5001235;28;20299;-43
2022/12/10 09:03:09;;;;;;;18.90;13.18;;;;;;;-2.04;100.00;101050.19;5000598;28;20192;-41
2022/12/10 09:05:35;;;;;;;20.33;13.73;;;;;;;-2.00;100.00;101049.38;4997339;28;20255;-42
2022/12/10 09:08:00;;;;;;;19.30;14.10;;;;;;;-2.07;100.00;101057.13;4998627;28;20682;-42
2022/12/10 09:10:26;;;;;;;21.50;14.18;;;;;;;-2.01;100.00;101052.84;4996078;28;20196;-43
2022/12/10 09:12:52;;;;;;;21.05;14.82;;;;;;;-2.12;100.00;101056.19;5000330;28;20251;-42
2022/12/10 09:15:17;;;;;;;18.98;14.88;;;;;;;-2.12;100.00;101071.03;4998052;28;20185;-43
2022/12/10 09:17:43;;;;;;;20.63;14.18;;;;;;;-2.04;100.00;101063.31;5000563;28;20169;-43
2022/12/10 09:20:08;;;;;;;19.60;14.75;;;;;;;-1.98;100.00;101068.66;5000368;28;20676;-43
2022/12/10 09:22:36;;;;;;;20.13;15.05;;;;;;;-1.95;100.00;101066.94;4999720;28;20280;-43
2022/12/10 09:25:04;;;;;;;17.02;13.75;;;;;;;-1.82;100.00;101077.66;4993872;28;20227;-41
2022/12/10 09:27:30;;;;;;;22.85;16.60;;;;;;;-2.02;100.00;101072.09;5002959;28;20192;-43
2022/12/10 09:29:56;;;;;;;19.95;14.77;;;;;;;-2.16;100.00;101083.25;4998430;28;20597;-42
2022/12/10 09:32:21;;;;;;;24.42;16.73;;;;;;;-2.16;100.00;101084.97;5004818;28;20183;-41
2022/12/10 09:34:51;;;;;;;21.85;16.00;;;;;;;-2.02;100.00;101077.34;4998494;28;20169;-43
2022/12/10 09:37:16;;;;;;;23.80;16.42;;;;;;;-1.97;100.00;101084.44;4998905;28;20589;-41
2022/12/10 09:39:42;;;;;;;21.10;14.70;;;;;;;-1.94;100.00;101079.25;4994562;28;20371;-43
2022/12/10 09:42:23;;;;;;;19.90;14.73;;;;;;;-2.15;100.00;101092.88;5002755;28;20177;-43
2022/12/10 09:45:25;;;;;;;20.13;14.02;;;;;;;-2.31;100.00;101088.22;4997030;28;20356;-43
2022/12/10 09:48:22;;;;;;;17.77;13.57;;;;;;;-2.35;100.00;101083.75;4996839;28;20234;-41
2022/12/10 09:51:10;;;;;;;16.17;13.00;;;;;;;-2.40;100.00;101090.66;4998111;28;20335;-42
2022/12/10 09:53:38;;;;;;;18.63;13.40;;;;;;;-2.35;100.00;101094.25;4999561;28;20224;-44
2022/12/10 09:56:04;;;;;;;19.35;13.35;;;;;;;-2.39;100.00;101087.19;4993798;28;20593;-45
2022/12/10 09:58:29;;;;;;;19.60;14.43;;;;;;;-2.33;100.00;101101.28;4995567;28;20239;-43
2022/12/10 10:01:02;;;;;;;19.85;14.55;;;;;;;-2.37;100.00;101086.34;4999885;28;20221;-42
2022/12/10 10:03:31;;;;;;;21.00;14.15;;;;;;;-2.27;100.00;101092.66;5003217;28;20204;-43
2022/12/10 10:05:57;;;;;;;21.95;15.30;;;;;;;-2.20;100.00;101097.16;5001819;28;20203;-42
2022/12/10 10:08:38;;;;;;;20.10;15.10;;;;;;;-2.22;100.00;101095.38;5005995;28;20191;-43
2022/12/10 10:11:04;;;;;;;23.23;16.70;;;;;;;-2.18;100.00;101097.19;4996169;28;20297;-42
2022/12/10 10:14:03;;;;;;;20.90;14.77;;;;;;;-2.26;100.00;101097.03;5000493;28;20192;-43
2022/12/10 10:16:37;;;;;;;17.00;13.25;;;;;;;-2.31;100.00;101103.94;4995254;28;20185;-43
2022/12/10 10:19:13;;;;;;;21.08;15.32;;;;;;;-2.17;100.00;101104.19;5003847;28;20283;-42
2022/12/10 10:21:47;;;;;;;21.30;15.63;;;;;;;-2.11;100.00;101102.56;5003701;28;20667;-42
2022/12/10 10:24:16;;;;;;;28.00;19.10;;;;;;;-2.05;100.00;101098.31;5002273;28;20181;-42
2022/12/10 10:26:42;;;;;;;22.45;15.00;;;;;;;-2.18;100.00;101086.69;5003910;28;20726;-44
2022/12/10 10:29:12;;;;;;;21.85;15.45;;;;;;;-2.13;100.00;101090.28;5011742;28;20542;-44
2022/12/10 10:31:42;;;;;;;23.02;16.00;;;;;;;-2.17;100.00;101088.44;4994285;28;20328;-44
2022/12/10 10:34:20;;;;;;;21.10;15.55;;;;;;;-2.23;100.00;101088.34;5003521;28;20207;-44
2022/12/10 10:36:46;;;;;;;21.73;16.05;;;;;;;-2.14;100.00;101092.03;4999917;28;20193;-44
2022/12/10 10:39:18;;;;;;;20.02;15.27;;;;;;;-2.14;100.00;101085.91;4998293;28;20191;-44
2022/12/10 10:41:48;;;;;;;21.80;15.98;;;;;;;-2.23;100.00;101086.63;4995265;28;20207;-47
2022/12/10 10:44:21;;;;;;;19.35;14.63;;;;;;;-2.09;100.00;101097.34;5004686;28;20196;-46
2022/12/10 10:46:49;;;;;;;23.65;15.65;;;;;;;-2.14;100.00;101092.03;4998990;28;20246;-46
2022/12/10 10:49:18;;;;;;;22.00;15.38;;;;;;;-2.14;100.00;101086.78;4998199;28;20243;-47
2022/12/10 10:51:45;;;;;;;22.90;15.88;;;;;;;-2.08;100.00;101092.13;5001973;28;20195;-45
2022/12/10 10:54:11;;;;;;;19.70;15.15;;;;;;;-2.17;100.00;101091.94;4999588;28;20268;-45
2022/12/10 10:56:43;;;;;;;19.15;14.88;;;;;;;-2.09;100.00;101097.34;4998264;28;20185;-45
2022/12/10 10:59:19;;;;;;;23.80;16.15;;;;;;;-2.10;100.00;101092.94;5004395;28;20248;-47
2022/12/10 11:01:50;;;;;;;21.00;15.82;;;;;;;-1.95;100.00;101094.94;4997427;28;20285;-49
2022/12/10 11:04:21;;;;;;;37.15;23.08;;;;;;;-2.11;100.00;101091.19;4999478;28;20660;-47
2022/12/10 11:06:50;;;;;;;21.85;15.48;;;;;;;-2.19;100.00;101091.03;5000355;28;20687;-47
2022/12/10 11:09:29;;;;;;;22.55;17.00;;;;;;;-2.27;100.00;101090.03;5004235;28;20176;-48
2022/12/10 11:12:04;;;;;;;21.60;16.30;;;;;;;-2.18;100.00;101090.19;5001698;28;20666;-44
2022/12/10 11:14:31;;;;;;;22.25;16.08;;;;;;;-2.14;100.00;101088.53;5003169;28;20395;-44
2022/12/10 11:17:14;;;;;;;19.60;15.13;;;;;;;-2.04;100.00;101084.31;4999201;28;20185;-47
2022/12/10 11:19:53;;;;;;;21.80;15.05;;;;;;;-2.11;100.00;101094.69;5000891;28;20205;-45
2022/12/10 11:22:24;;;;;;;21.20;14.75;;;;;;;-2.01;100.00;101093.13;4998163;28;20703;-46